createdAt,value
2016-12-12T00:00:03.893Z,83.29
2016-12-12T00:01:13.693Z,83.39
2016-12-12T00:02:23.529Z,83.29
2016-12-12T00:03:33.330Z,83.29
2016-12-12T00:04:43.155Z,83.29
2016-12-12T00:05:52.935Z,83.19
2016-12-12T00:07:02.101Z,83.19
2016-12-12T00:08:11.623Z,83.29
2016-12-12T00:09:21.432Z,83.19
2016-12-12T00:10:31.212Z,83.1
2016-12-12T00:11:40.993Z,83.39
2016-12-12T00:12:50.772Z,83.39
2016-12-12T00:14:00.239Z,83.29
2016-12-12T00:15:09.706Z,83.19
2016-12-12T00:16:19.586Z,83.29
2016-12-12T00:17:28.438Z,83.19
2016-12-12T00:18:37.911Z,83
2016-12-12T00:19:47.121Z,83
2016-12-12T00:20:56.723Z,83.29
2016-12-12T00:22:06.211Z,83.39
2016-12-12T00:23:15.413Z,83
2016-12-12T00:24:25.188Z,83.19
2016-12-12T00:25:34.668Z,83.39
2016-12-12T00:26:44.257Z,83.29
2016-12-12T00:27:54.070Z,83.48
2016-12-12T00:29:03.221Z,83.95
2016-12-12T00:30:13.026Z,83.95
2016-12-12T00:31:22.508Z,83.86
2016-12-12T00:32:32.276Z,83.95
2016-12-12T00:33:42.066Z,84.33
2016-12-12T00:34:51.525Z,84.52
2016-12-12T00:36:00.981Z,84.62
2016-12-12T00:37:10.483Z,84.43
2016-12-12T00:38:19.697Z,84.62
2016-12-12T00:39:29.192Z,84.33
2016-12-12T00:40:38.796Z,84.14
2016-12-12T00:41:48.580Z,84.43
2016-12-12T00:42:57.473Z,84.14
2016-12-12T00:44:07.284Z,84.14
2016-12-12T00:45:17.322Z,84.14
2016-12-12T00:46:26.177Z,84.14
2016-12-12T00:47:35.991Z,84.62
2016-12-12T00:48:45.558Z,83.67
2016-12-12T00:49:54.715Z,84.52
2016-12-12T00:51:04.200Z,84.14
2016-12-12T00:52:14.002Z,84.52
2016-12-12T00:53:23.491Z,83.86
2016-12-12T00:54:33.261Z,84.05
2016-12-12T00:55:42.733Z,83.76
2016-12-12T00:56:52.577Z,83.67
2016-12-12T00:58:02.362Z,83.76
2016-12-12T00:59:12.137Z,83.86
2016-12-12T01:00:21.290Z,83.71
2016-12-12T01:01:31.099Z,83.58
2016-12-12T01:02:40.896Z,83.58
2016-12-12T01:03:50.357Z,83.39
2016-12-12T01:05:00.136Z,83.48
2016-12-12T01:06:09.714Z,83.29
2016-12-12T01:07:19.198Z,83.04
2016-12-12T01:08:28.365Z,83.42
2016-12-12T01:09:37.901Z,83.19
2016-12-12T01:10:47.669Z,83.29
2016-12-12T01:11:57.456Z,83
2016-12-12T01:13:07.234Z,82.53
2016-12-12T01:14:16.832Z,82.86
2016-12-12T01:15:26.623Z,82.95
2016-12-12T01:16:36.450Z,83.14
2016-12-12T01:17:45.915Z,82.91
2016-12-12T01:18:55.543Z,83.04
2016-12-12T01:20:05.304Z,82.71
2016-12-12T01:21:14.792Z,82.76
2016-12-12T01:22:24.281Z,82.76
2016-12-12T01:23:33.764Z,82.57
2016-12-12T01:24:43.627Z,83.04
2016-12-12T01:25:53.098Z,82.95
2016-12-12T01:27:02.313Z,83.04
2016-12-12T01:28:12.103Z,82.67
2016-12-12T01:29:21.961Z,82.57
2016-12-12T01:30:31.773Z,83.42
2016-12-12T01:31:41.577Z,83.33
2016-12-12T01:32:51.040Z,83.23
2016-12-12T01:34:00.557Z,83.14
2016-12-12T01:35:10.040Z,83.42
2016-12-12T01:36:19.828Z,83.33
2016-12-12T01:37:29.619Z,83.42
2016-12-12T01:38:39.384Z,83.14
2016-12-12T01:39:49.171Z,83.58
2016-12-12T01:40:58.946Z,83.52
2016-12-12T01:42:08.735Z,83.52
2016-12-12T01:43:18.242Z,84.05
2016-12-12T01:44:27.396Z,83.29
2016-12-12T01:45:37.170Z,83.67
2016-12-12T01:46:46.636Z,83.33
2016-12-12T01:47:56.449Z,83.67
2016-12-12T01:49:06.236Z,83.71
2016-12-12T01:50:16.037Z,83.48
2016-12-12T01:51:25.499Z,83.58
2016-12-12T01:52:35.058Z,83.48
2016-12-12T01:53:44.886Z,83.67
2016-12-12T01:54:54.754Z,83.48
2016-12-12T01:56:04.525Z,83.71
2016-12-12T01:57:13.990Z,83.19
2016-12-12T01:58:23.473Z,83.42
2016-12-12T01:59:33.298Z,83.42
2016-12-12T02:00:43.212Z,83.42
2016-12-12T02:01:52.670Z,83.42
2016-12-12T02:03:02.447Z,83.52
2016-12-12T02:04:12.230Z,83.42
2016-12-12T02:05:22.071Z,83.23
2016-12-12T02:06:31.918Z,83.42
2016-12-12T02:07:41.798Z,83.33
2016-12-12T02:08:51.309Z,83.62
2016-12-12T02:10:00.468Z,83.14
2016-12-12T02:11:10.021Z,83.62
2016-12-12T02:12:19.938Z,83.52
2016-12-12T02:13:29.116Z,83.62
2016-12-12T02:14:38.298Z,83.23
2016-12-12T02:15:48.136Z,84.09
2016-12-12T02:16:57.635Z,83.81
2016-12-12T02:18:07.417Z,83.86
2016-12-12T02:19:17.195Z,83.58
2016-12-12T02:20:26.966Z,84.28
2016-12-12T02:21:36.737Z,83.9
2016-12-12T02:22:46.249Z,84.85
2016-12-12T02:23:56.118Z,84.66
2016-12-12T02:25:05.580Z,84.47
2016-12-12T02:26:14.755Z,84.43
2016-12-12T02:27:24.597Z,84.52
2016-12-12T02:28:34.375Z,84.81
2016-12-12T02:29:44.272Z,84.72
2016-12-12T02:30:54.072Z,84.91
2016-12-12T02:32:03.877Z,85.19
2016-12-12T02:33:13.685Z,84.81
2016-12-12T02:34:23.143Z,85.19
2016-12-12T02:35:33.032Z,84.81
2016-12-12T02:36:42.518Z,84.62
2016-12-12T02:37:52.179Z,84.72
2016-12-12T02:39:01.674Z,84.72
2016-12-12T02:40:11.486Z,84.62
2016-12-12T02:41:20.946Z,85.28
2016-12-12T02:42:30.421Z,85.1
2016-12-12T02:43:39.658Z,85.19
2016-12-12T02:44:49.135Z,85.1
2016-12-12T02:45:58.625Z,85.1
2016-12-12T02:47:08.397Z,84.81
2016-12-12T02:48:18.191Z,84.62
2016-12-12T02:49:27.349Z,84.52
2016-12-12T02:50:37.304Z,84.81
2016-12-12T02:51:47.074Z,85.76
2016-12-12T02:52:56.562Z,85.38
2016-12-12T02:54:06.366Z,85.47
2016-12-12T02:55:15.824Z,85.57
2016-12-12T02:56:25.347Z,85.66
2016-12-12T02:57:35.139Z,85.57
2016-12-12T02:58:44.444Z,85.47
2016-12-12T02:59:53.923Z,85.66
2016-12-12T03:01:03.725Z,85.66
2016-12-12T03:02:13.207Z,85.86
2016-12-12T03:03:22.703Z,85.86
2016-12-12T03:04:32.505Z,85.57
2016-12-12T03:05:42.014Z,85.76
2016-12-12T03:06:51.481Z,86.05
2016-12-12T03:08:00.650Z,86.14
2016-12-12T03:09:10.119Z,86.05
2016-12-12T03:10:19.590Z,86.05
2016-12-12T03:11:28.448Z,86.61
2016-12-12T03:12:37.916Z,86.05
2016-12-12T03:13:47.572Z,86.33
2016-12-12T03:14:57.066Z,86.52
2016-12-12T03:16:06.589Z,86.99
2016-12-12T03:17:15.976Z,86.14
2016-12-12T03:18:25.745Z,86.61
2016-12-12T03:19:34.968Z,86.43
2016-12-12T03:20:44.781Z,85.95
2016-12-12T03:21:54.669Z,85.86
2016-12-12T03:23:04.518Z,86.43
2016-12-12T03:24:14.307Z,86.05
2016-12-12T03:25:24.129Z,85.95
2016-12-12T03:26:33.986Z,86.24
2016-12-12T03:27:43.495Z,86.14
2016-12-12T03:28:53.096Z,85.95
2016-12-12T03:30:02.598Z,86.14
2016-12-12T03:31:12.397Z,86.24
2016-12-12T03:32:21.862Z,86.14
2016-12-12T03:33:31.727Z,86.09
2016-12-12T03:34:41.210Z,86.09
2016-12-12T03:35:51.019Z,86.14
2016-12-12T03:37:00.804Z,86.14
2016-12-12T03:38:10.400Z,86.24
2016-12-12T03:39:19.916Z,86.14
2016-12-12T03:40:29.682Z,86.43
2016-12-12T03:41:39.451Z,86.43
2016-12-12T03:42:49.227Z,86.28
2016-12-12T03:43:58.756Z,86.05
2016-12-12T03:45:08.243Z,86.66
2016-12-12T03:46:17.705Z,86.14
2016-12-12T03:47:27.314Z,86.52
2016-12-12T03:48:36.777Z,86.71
2016-12-12T03:49:46.238Z,86.52
2016-12-12T03:50:55.751Z,86.61
2016-12-12T03:52:05.214Z,86.61
2016-12-12T03:53:14.687Z,86.8
2016-12-12T03:54:24.475Z,86.61
2016-12-12T03:55:34.164Z,86.61
2016-12-12T03:56:43.969Z,86.9
2016-12-12T03:57:53.747Z,86.52
2016-12-12T03:59:03.549Z,86.71
2016-12-12T04:00:13.079Z,86.52
2016-12-12T04:01:22.240Z,86.71
2016-12-12T04:02:31.730Z,86.52
2016-12-12T04:03:41.535Z,86.71
2016-12-12T04:04:51.385Z,86.52
2016-12-12T04:06:00.895Z,87.09
2016-12-12T04:07:10.405Z,86.9
2016-12-12T04:08:20.225Z,86.9
2016-12-12T04:09:30.025Z,86.61
2016-12-12T04:10:39.527Z,87.09
2016-12-12T04:11:49.053Z,87.38
2016-12-12T04:12:58.369Z,87.09
2016-12-12T04:14:07.820Z,86.71
2016-12-12T04:15:17.598Z,87.28
2016-12-12T04:16:27.063Z,86.8
2016-12-12T04:17:36.572Z,87.38
2016-12-12T04:18:46.356Z,87.38
2016-12-12T04:19:56.121Z,86.8
2016-12-12T04:21:05.302Z,86.8
2016-12-12T04:22:14.769Z,86.8
2016-12-12T04:23:24.232Z,86.99
2016-12-12T04:24:34.023Z,86.99
2016-12-12T04:25:43.498Z,86.9
2016-12-12T04:26:53.279Z,86.9
2016-12-12T04:28:03.105Z,86.9
2016-12-12T04:29:12.793Z,86.85
2016-12-12T04:30:22.567Z,86.85
2016-12-12T04:31:32.353Z,86.85
2016-12-12T04:32:42.135Z,86.94
2016-12-12T04:33:51.614Z,86.85
2016-12-12T04:35:00.765Z,86.8
2016-12-12T04:36:10.250Z,86.85
2016-12-12T04:37:19.868Z,87.04
2016-12-12T04:38:29.695Z,87.23
2016-12-12T04:39:39.168Z,87.23
2016-12-12T04:40:48.634Z,87.42
2016-12-12T04:41:58.461Z,87.32
2016-12-12T04:43:07.950Z,87.13
2016-12-12T04:44:17.474Z,87.13
2016-12-12T04:45:27.279Z,87.32
2016-12-12T04:46:37.078Z,87.32
2016-12-12T04:47:46.559Z,87.13
2016-12-12T04:48:56.336Z,87.52
2016-12-12T04:50:06.144Z,87.71
2016-12-12T04:51:15.937Z,87.28
2016-12-12T04:52:25.421Z,87.8
2016-12-12T04:53:34.906Z,87.8
2016-12-12T04:54:44.488Z,87.61
2016-12-12T04:55:54.306Z,87.61
2016-12-12T04:57:04.083Z,88.09
2016-12-12T04:58:13.550Z,87.71
2016-12-12T04:59:23.061Z,88.37
2016-12-12T05:00:32.980Z,88.42
2016-12-12T05:01:42.165Z,88.37
2016-12-12T05:02:51.969Z,88.33
2016-12-12T05:04:01.764Z,88.42
2016-12-12T05:05:11.218Z,88.23
2016-12-12T05:06:20.995Z,88.52
2016-12-12T05:07:30.587Z,88.33
2016-12-12T05:08:40.079Z,88.61
2016-12-12T05:09:49.570Z,89.04
2016-12-12T05:10:59.034Z,89
2016-12-12T05:12:08.925Z,89.04
2016-12-12T05:13:18.413Z,88.71
2016-12-12T05:14:27.291Z,88.9
2016-12-12T05:15:36.784Z,88.61
2016-12-12T05:16:46.557Z,88.42
2016-12-12T05:17:56.343Z,88.9
2016-12-12T05:19:05.888Z,89.04
2016-12-12T05:20:15.686Z,88.94
2016-12-12T05:21:25.464Z,88.75
2016-12-12T05:22:35.232Z,88.33
2016-12-12T05:23:45.023Z,88.75
2016-12-12T05:24:54.910Z,89.04
2016-12-12T05:26:04.375Z,88.66
2016-12-12T05:27:14.150Z,88.94
2016-12-12T05:28:23.334Z,88.75
2016-12-12T05:29:33.134Z,88.75
2016-12-12T05:30:42.904Z,89.04
2016-12-12T05:31:52.708Z,88.94
2016-12-12T05:33:02.510Z,89.04
2016-12-12T05:34:11.984Z,88.75
2016-12-12T05:35:21.483Z,88.66
2016-12-12T05:36:30.974Z,89.42
2016-12-12T05:37:40.791Z,88.75
2016-12-12T05:38:50.599Z,88.85
2016-12-12T05:40:00.202Z,89.47
2016-12-12T05:41:08.963Z,89.23
2016-12-12T05:42:18.461Z,89.18
2016-12-12T05:43:28.385Z,89.09
2016-12-12T05:44:38.158Z,89.09
2016-12-12T05:45:47.366Z,89.18
2016-12-12T05:46:57.236Z,89.18
2016-12-12T05:48:07.111Z,89.51
2016-12-12T05:49:16.950Z,88.94
2016-12-12T05:50:26.730Z,88.75
2016-12-12T05:51:36.240Z,88.8
2016-12-12T05:52:46.128Z,89
2016-12-12T05:53:55.908Z,88.42
2016-12-12T05:55:05.717Z,88.46
2016-12-12T05:56:15.217Z,88.04
2016-12-12T05:57:24.996Z,88.42
2016-12-12T05:58:37.113Z,88.46
2016-12-12T05:59:46.889Z,88.13
2016-12-12T06:00:55.744Z,88.42
2016-12-12T06:02:05.304Z,88.42
2016-12-12T06:03:14.813Z,88.33
2016-12-12T06:04:24.435Z,88.13
2016-12-12T06:05:33.973Z,88.42
2016-12-12T06:06:43.464Z,88.23
2016-12-12T06:07:52.935Z,88.33
2016-12-12T06:09:02.433Z,88.56
2016-12-12T06:10:12.276Z,88.42
2016-12-12T06:11:22.068Z,87.85
2016-12-12T06:12:31.910Z,87.76
2016-12-12T06:13:41.688Z,87.8
2016-12-12T06:14:51.499Z,88.09
2016-12-12T06:16:00.975Z,88.09
2016-12-12T06:17:10.761Z,88.18
2016-12-12T06:18:20.234Z,87.99
2016-12-12T06:19:29.820Z,87.61
2016-12-12T06:20:39.283Z,87.99
2016-12-12T06:21:48.846Z,88.56
2016-12-12T06:22:58.633Z,87.99
2016-12-12T06:24:08.424Z,88.04
2016-12-12T06:25:18.229Z,88.56
2016-12-12T06:26:27.997Z,88.09
2016-12-12T06:27:37.463Z,87.9
2016-12-12T06:28:46.986Z,87.8
2016-12-12T06:29:56.846Z,87.71
2016-12-12T06:31:06.316Z,87.8
2016-12-12T06:32:16.132Z,87.99
2016-12-12T06:33:25.297Z,87.8
2016-12-12T06:34:35.084Z,87.8
2016-12-12T06:35:44.573Z,87.8
2016-12-12T06:36:53.794Z,87.9
2016-12-12T06:38:03.642Z,87.9
2016-12-12T06:39:13.152Z,88.09
2016-12-12T06:40:22.625Z,87.9
2016-12-12T06:41:32.438Z,87.61
2016-12-12T06:42:41.923Z,87.61
2016-12-12T06:43:51.398Z,88.18
2016-12-12T06:45:00.999Z,88.18
2016-12-12T06:46:10.501Z,88.09
2016-12-12T06:47:19.979Z,88.09
2016-12-12T06:48:29.446Z,87.52
2016-12-12T06:49:38.907Z,87.52
2016-12-12T06:50:48.858Z,87.61
2016-12-12T06:51:58.651Z,87.61
2016-12-12T06:53:08.439Z,87.71
2016-12-12T06:54:17.953Z,87.8
2016-12-12T06:55:27.749Z,87.71
2016-12-12T06:56:37.045Z,87.8
2016-12-12T06:57:46.521Z,87.9
2016-12-12T06:58:56.001Z,87.9
2016-12-12T07:00:05.476Z,87.61
2016-12-12T07:01:15.253Z,87.71
2016-12-12T07:02:24.740Z,87.71
2016-12-12T07:03:34.205Z,87.71
2016-12-12T07:04:43.987Z,87.71
2016-12-12T07:05:53.754Z,87.9
2016-12-12T07:07:03.217Z,87.9
2016-12-12T07:08:13.037Z,87.61
2016-12-12T07:09:22.866Z,87.9
2016-12-12T07:10:32.685Z,87.71
2016-12-12T07:11:41.835Z,87.9
2016-12-12T07:12:51.771Z,87.9
2016-12-12T07:14:01.544Z,87.99
2016-12-12T07:15:11.004Z,87.9
2016-12-12T07:16:20.474Z,87.71
2016-12-12T07:17:30.303Z,87.8
2016-12-12T07:18:40.082Z,87.32
2016-12-12T07:19:49.538Z,87.9
2016-12-12T07:20:59.311Z,87.9
2016-12-12T07:22:08.793Z,87.99
2016-12-12T07:23:18.664Z,87.66
2016-12-12T07:24:28.449Z,87.61
2016-12-12T07:25:37.930Z,87.9
2016-12-12T07:26:47.098Z,87.8
2016-12-12T07:27:56.327Z,87.9
2016-12-12T07:29:06.131Z,87.61
2016-12-12T07:30:16.051Z,87.71
2016-12-12T07:31:25.848Z,87.8
2016-12-12T07:32:35.625Z,87.71
2016-12-12T07:33:45.403Z,87.61
2016-12-12T07:34:55.198Z,87.71
2016-12-12T07:36:04.654Z,87.9
2016-12-12T07:37:14.212Z,87.71
2016-12-12T07:38:23.982Z,87.61
2016-12-12T07:39:33.174Z,87.61
2016-12-12T07:40:42.667Z,87.71
2016-12-12T07:41:52.247Z,87.99
2016-12-12T07:43:02.041Z,87.52
2016-12-12T07:44:11.566Z,87.8
2016-12-12T07:45:21.373Z,87.71
2016-12-12T07:46:30.566Z,87.71
2016-12-12T07:47:40.075Z,87.9
2016-12-12T07:48:49.545Z,87.99
2016-12-12T07:49:59.009Z,87.71
2016-12-12T07:51:08.790Z,87.52
2016-12-12T07:52:18.275Z,87.32
2016-12-12T07:53:27.763Z,87.42
2016-12-12T07:54:37.256Z,87.23
2016-12-12T07:55:46.584Z,87.61
2016-12-12T07:56:56.064Z,87.42
2016-12-12T07:58:05.535Z,87.32
2016-12-12T07:59:15.322Z,87.13
2016-12-12T08:00:25.098Z,86.57
2016-12-12T08:01:34.923Z,86.47
2016-12-12T08:02:44.428Z,86.57
2016-12-12T08:03:54.233Z,86.38
2016-12-12T08:05:03.085Z,85.99
2016-12-12T08:06:12.579Z,85.99
2016-12-12T08:07:22.091Z,86.28
2016-12-12T08:08:31.574Z,85.86
2016-12-12T08:09:40.757Z,85.71
2016-12-12T08:10:50.259Z,85.57
2016-12-12T08:11:59.718Z,85.76
2016-12-12T08:13:09.503Z,85.66
2016-12-12T08:14:19.279Z,85.38
2016-12-12T08:15:28.608Z,84.81
2016-12-12T08:16:38.084Z,85.47
2016-12-12T08:17:47.862Z,84.81
2016-12-12T08:18:57.640Z,85.14
2016-12-12T08:20:06.845Z,84.56
2016-12-12T08:21:16.616Z,84.43
2016-12-12T08:22:26.402Z,84.62
2016-12-12T08:23:36.164Z,84.91
2016-12-12T08:24:45.965Z,85
2016-12-12T08:25:55.160Z,85
2016-12-12T08:27:04.938Z,85.04
2016-12-12T08:28:14.808Z,85.1
2016-12-12T08:29:24.272Z,84.66
2016-12-12T08:30:34.195Z,84.91
2016-12-12T08:31:43.660Z,84.38
2016-12-12T08:32:52.844Z,84.52
2016-12-12T08:34:02.333Z,84.72
2016-12-12T08:35:12.108Z,84.72
2016-12-12T08:36:21.878Z,84.66
2016-12-12T08:37:31.666Z,84.52
2016-12-12T08:38:41.128Z,84.52
2016-12-12T08:39:50.621Z,84.62
2016-12-12T08:41:00.138Z,84.47
2016-12-12T08:42:09.936Z,84.66
2016-12-12T08:43:19.414Z,84.66
2016-12-12T08:44:28.899Z,84.56
2016-12-12T08:45:38.695Z,84.28
2016-12-12T08:46:48.502Z,84.52
2016-12-12T08:47:57.990Z,84.56
2016-12-12T08:49:07.548Z,84.56
2016-12-12T08:50:17.356Z,84.56
2016-12-12T08:51:26.842Z,84.47
2016-12-12T08:52:36.670Z,84.76
2016-12-12T08:53:45.830Z,84.28
2016-12-12T08:54:55.345Z,84.47
2016-12-12T08:56:04.830Z,84.56
2016-12-12T08:57:14.605Z,84.28
2016-12-12T08:58:24.429Z,84.47
2016-12-12T08:59:34.240Z,83.9
2016-12-12T09:00:44.034Z,83.71
2016-12-12T09:01:53.933Z,83.81
2016-12-12T09:03:03.735Z,84.09
2016-12-12T09:04:13.240Z,83.52
2016-12-12T09:05:54.933Z,83.23
2016-12-12T09:07:04.749Z,83.42
2016-12-12T09:08:13.910Z,83.23
2016-12-12T09:09:23.704Z,83.04
2016-12-12T09:10:33.209Z,83.14
2016-12-12T09:11:42.993Z,83.33
2016-12-12T09:12:52.777Z,83.14
2016-12-12T09:14:02.618Z,82.76
2016-12-12T09:15:12.167Z,82.34
2016-12-12T09:16:21.972Z,82.91
2016-12-12T09:17:31.776Z,82.62
2016-12-12T09:18:41.241Z,82.71
2016-12-12T09:19:50.752Z,82.34
2016-12-12T09:21:00.258Z,82.81
2016-12-12T09:22:09.854Z,82.62
2016-12-12T09:23:19.674Z,82.71
2016-12-12T09:24:29.462Z,82.81
2016-12-12T09:25:39.225Z,82.81
2016-12-12T09:26:48.736Z,83.39
2016-12-12T09:27:58.510Z,83
2016-12-12T09:29:07.995Z,83.39
2016-12-12T09:30:17.903Z,83.39
2016-12-12T09:31:27.732Z,83.58
2016-12-12T09:32:36.950Z,83.67
2016-12-12T09:33:46.806Z,83.67
2016-12-12T09:34:56.577Z,83.19
2016-12-12T09:36:05.433Z,84.05
2016-12-12T09:37:15.228Z,83.95
2016-12-12T09:38:25.089Z,84.05
2016-12-12T09:39:34.962Z,83.86
2016-12-12T09:40:44.752Z,83.76
2016-12-12T09:41:54.563Z,84.05
2016-12-12T09:43:04.337Z,83.86
2016-12-12T09:44:14.120Z,83.86
2016-12-12T09:45:23.279Z,83.86
2016-12-12T09:46:33.077Z,83.95
2016-12-12T09:47:42.880Z,83.76
2016-12-12T09:48:52.250Z,84.05
2016-12-12T09:50:02.037Z,84.05
2016-12-12T09:51:11.843Z,83.95
2016-12-12T09:52:21.645Z,84.14
2016-12-12T09:53:31.424Z,83.95
2016-12-12T09:54:40.988Z,83.48
2016-12-12T09:55:50.938Z,83.52
2016-12-12T09:57:00.755Z,83.52
2016-12-12T09:58:10.257Z,83.42
2016-12-12T09:59:19.741Z,83.23
2016-12-12T10:00:29.205Z,83.42
2016-12-12T10:01:38.669Z,83.23
2016-12-12T10:02:48.140Z,83.33
2016-12-12T10:03:57.617Z,82.86
2016-12-12T10:05:07.104Z,82.86
2016-12-12T10:06:16.598Z,81.9
2016-12-12T10:07:26.067Z,82.28
2016-12-12T10:08:35.538Z,82.48
2016-12-12T10:09:45.347Z,81.62
2016-12-12T10:10:55.157Z,81.71
2016-12-12T10:12:04.936Z,81.81
2016-12-12T10:13:14.491Z,81.24
2016-12-12T10:14:24.305Z,80.95
2016-12-12T10:15:33.783Z,81.43
2016-12-12T10:16:42.960Z,81.14
2016-12-12T10:17:52.128Z,81.14
2016-12-12T10:19:01.670Z,81.14
2016-12-12T10:20:11.158Z,80.86
2016-12-12T10:21:20.313Z,81.24
2016-12-12T10:22:30.088Z,81.33
2016-12-12T10:23:39.590Z,81.14
2016-12-12T10:24:49.378Z,81.14
2016-12-12T10:25:59.245Z,81.14
2016-12-12T10:27:09.068Z,81.14
2016-12-12T10:28:18.567Z,81.14
2016-12-12T10:29:28.354Z,81.33
2016-12-12T10:30:37.820Z,81.14
2016-12-12T10:31:47.293Z,80.76
2016-12-12T10:32:57.115Z,80.76
2016-12-12T10:34:06.609Z,80.76
2016-12-12T10:35:16.424Z,80.19
2016-12-12T10:36:26.268Z,80.47
2016-12-12T10:37:36.129Z,80.57
2016-12-12T10:38:45.598Z,80.19
2016-12-12T10:39:55.410Z,80.29
2016-12-12T10:41:05.208Z,80.29
2016-12-12T10:42:14.700Z,80.47
2016-12-12T10:43:24.160Z,80.1
2016-12-12T10:44:33.657Z,80.38
2016-12-12T10:45:43.132Z,79.81
2016-12-12T10:46:52.911Z,80.19
2016-12-12T10:48:02.396Z,79.43
2016-12-12T10:49:11.924Z,78.99
2016-12-12T10:50:21.387Z,79.57
2016-12-12T10:51:31.197Z,79.47
2016-12-12T10:52:41.035Z,79.19
2016-12-12T10:53:50.513Z,79.75
2016-12-12T10:55:00.428Z,78.99
2016-12-12T10:56:09.908Z,79.09
2016-12-12T10:57:19.458Z,78.8
2016-12-12T10:58:28.964Z,78.42
2016-12-12T10:59:38.523Z,78.14
2016-12-12T11:00:47.990Z,78.42
2016-12-12T11:01:57.537Z,78.14
2016-12-12T11:03:07.020Z,77.66
2016-12-12T11:04:16.631Z,77.51
2016-12-12T11:05:26.414Z,77.32
2016-12-12T11:06:36.205Z,77.42
2016-12-12T11:07:45.993Z,76.94
2016-12-12T11:08:55.814Z,76.75
2016-12-12T11:10:05.647Z,75.99
2016-12-12T11:11:15.460Z,75.04
2016-12-12T11:12:25.237Z,75.51
2016-12-12T11:13:34.896Z,75.7
2016-12-12T11:14:44.682Z,75.6
2016-12-12T11:15:54.456Z,75.6
2016-12-12T11:17:04.305Z,75.6
2016-12-12T11:18:13.805Z,74.98
2016-12-12T11:19:23.278Z,74.6
2016-12-12T11:20:33.116Z,74.6
2016-12-12T11:21:42.386Z,74.69
2016-12-12T11:22:51.562Z,74.79
2016-12-12T11:24:01.396Z,74.31
2016-12-12T11:25:10.872Z,73.74
2016-12-12T11:26:20.458Z,73.36
2016-12-12T11:27:29.958Z,72.85
2016-12-12T11:28:39.766Z,73.41
2016-12-12T11:29:48.937Z,73.7
2016-12-12T11:30:58.724Z,74.18
2016-12-12T11:32:08.526Z,74.18
2016-12-12T11:33:18.134Z,74.37
2016-12-12T11:34:27.979Z,74.08
2016-12-12T11:35:37.759Z,74.46
2016-12-12T11:36:47.561Z,74.08
2016-12-12T11:37:57.083Z,73.85
2016-12-12T11:39:06.920Z,73.76
2016-12-12T11:40:16.401Z,73.57
2016-12-12T11:41:26.213Z,73.66
2016-12-12T11:42:36.014Z,74.04
2016-12-12T11:43:45.182Z,74.04
2016-12-12T11:44:54.685Z,74.43
2016-12-12T11:46:04.207Z,73.85
2016-12-12T11:47:13.685Z,73.66
2016-12-12T11:48:23.502Z,73.66
2016-12-12T11:49:32.691Z,73.28
2016-12-12T11:50:42.270Z,73
2016-12-12T11:51:52.100Z,72.81
2016-12-12T11:53:01.591Z,72.81
2016-12-12T11:54:11.413Z,73.19
2016-12-12T11:55:21.195Z,73.28
2016-12-12T11:56:30.965Z,73.38
2016-12-12T11:57:40.576Z,73.19
2016-12-12T11:58:50.369Z,73.25
2016-12-12T11:59:59.854Z,73.1
2016-12-12T12:01:09.676Z,73.53
2016-12-12T12:02:19.466Z,73.53
2016-12-12T12:03:28.636Z,73.72
2016-12-12T12:04:38.423Z,74.2
2016-12-12T12:05:48.229Z,73.82
2016-12-12T12:06:57.715Z,74.39
2016-12-12T12:08:07.281Z,74.01
2016-12-12T12:09:16.754Z,74.77
2016-12-12T12:10:26.265Z,73.82
2016-12-12T12:11:36.093Z,74.2
2016-12-12T12:12:45.909Z,74.39
2016-12-12T12:13:55.407Z,74.2
2016-12-12T12:15:05.207Z,74.39
2016-12-12T12:16:14.738Z,74.29
2016-12-12T12:17:24.335Z,74.71
2016-12-12T12:18:34.189Z,74.62
2016-12-12T12:19:43.659Z,74.2
2016-12-12T12:20:53.486Z,74.33
2016-12-12T12:22:03.511Z,74.8
2016-12-12T12:23:13.367Z,74.24
2016-12-12T12:24:23.169Z,74.33
2016-12-12T12:25:32.947Z,74.29
2016-12-12T12:26:42.642Z,74.01
2016-12-12T12:27:52.457Z,74.29
2016-12-12T12:29:02.246Z,74.58
2016-12-12T12:30:11.740Z,74.48
2016-12-12T12:31:21.517Z,74.58
2016-12-12T12:32:31.340Z,74.62
2016-12-12T12:33:40.856Z,74.39
2016-12-12T12:34:50.683Z,74.2
2016-12-12T12:36:00.471Z,73.91
2016-12-12T12:37:10.298Z,74.14
2016-12-12T12:38:19.774Z,74.01
2016-12-12T12:39:29.830Z,73.82
2016-12-12T12:40:38.739Z,74.1
2016-12-12T12:41:48.327Z,74.14
2016-12-12T12:42:57.806Z,73.72
2016-12-12T12:44:07.615Z,73.72
2016-12-12T12:45:17.398Z,74.2
2016-12-12T12:46:27.220Z,74.2
2016-12-12T12:47:36.700Z,73.82
2016-12-12T12:48:46.195Z,73.91
2016-12-12T12:49:55.715Z,73.82
2016-12-12T12:51:04.895Z,74.2
2016-12-12T12:52:14.687Z,73.82
2016-12-12T12:53:24.165Z,73.72
2016-12-12T12:54:33.632Z,73.72
2016-12-12T12:55:43.196Z,73.72
2016-12-12T12:56:52.981Z,73.82
2016-12-12T12:58:02.464Z,73.91
2016-12-12T12:59:12.269Z,73.82
2016-12-12T13:00:21.854Z,74.01
2016-12-12T13:01:31.333Z,74.2
2016-12-12T13:02:41.156Z,74.29
2016-12-12T13:03:50.629Z,74.2
2016-12-12T13:05:00.099Z,74.58
2016-12-12T13:06:09.934Z,74.67
2016-12-12T13:07:19.712Z,74.2
2016-12-12T13:08:29.491Z,73.82
2016-12-12T13:09:39.289Z,73.88
2016-12-12T13:10:48.792Z,74.35
2016-12-12T13:11:58.720Z,74.44
2016-12-12T13:13:08.207Z,74.54
2016-12-12T13:14:17.766Z,74.44
2016-12-12T13:15:27.566Z,74.35
2016-12-12T13:16:36.735Z,75.11
2016-12-12T13:17:46.247Z,75.4
2016-12-12T13:18:56.089Z,75.4
2016-12-12T13:20:05.900Z,75.87
2016-12-12T13:21:15.735Z,75.68
2016-12-12T13:22:25.567Z,75.87
2016-12-12T13:23:35.033Z,75.96
2016-12-12T13:24:44.822Z,76.06
2016-12-12T13:25:54.293Z,75.87
2016-12-12T13:27:03.784Z,75.78
2016-12-12T13:28:13.297Z,75.68
2016-12-12T13:29:22.928Z,75.78
2016-12-12T13:30:32.739Z,75.78
2016-12-12T13:31:41.906Z,75.78
2016-12-12T13:32:51.740Z,75.55
2016-12-12T13:34:01.519Z,76.06
2016-12-12T13:35:10.998Z,75.59
2016-12-12T13:36:20.778Z,75.68
2016-12-12T13:37:30.553Z,75.78
2016-12-12T13:38:40.059Z,75.87
2016-12-12T13:39:49.931Z,75.68
2016-12-12T13:40:59.094Z,75.49
2016-12-12T13:42:08.999Z,75.4
2016-12-12T13:43:18.201Z,75.21
2016-12-12T13:44:27.679Z,75.49
2016-12-12T13:45:37.471Z,75.49
2016-12-12T13:46:46.973Z,75.4
2016-12-12T13:47:56.891Z,75.4
2016-12-12T13:49:06.399Z,75.11
2016-12-12T13:50:15.991Z,75.21
2016-12-12T13:51:25.797Z,75.17
2016-12-12T13:52:35.686Z,75.45
2016-12-12T13:53:45.507Z,75.74
2016-12-12T13:54:55.296Z,75.4
2016-12-12T13:56:04.793Z,75.36
2016-12-12T13:57:14.607Z,75.64
2016-12-12T13:58:24.088Z,76.03
2016-12-12T13:59:33.880Z,76.12
2016-12-12T14:00:43.693Z,75.64
2016-12-12T14:01:53.163Z,76.03
2016-12-12T14:03:02.627Z,75.93
2016-12-12T14:04:12.432Z,75.93
2016-12-12T14:05:21.934Z,76.21
2016-12-12T14:06:31.502Z,76.21
2016-12-12T14:07:40.984Z,76.21
2016-12-12T14:08:50.849Z,76.4
2016-12-12T14:10:00.654Z,76.5
2016-12-12T14:11:10.494Z,76.5
2016-12-12T14:12:19.983Z,76.5
2016-12-12T14:13:29.177Z,75.64
2016-12-12T14:14:38.948Z,75.93
2016-12-12T14:15:48.760Z,76.03
2016-12-12T14:16:58.220Z,75.74
2016-12-12T14:18:07.750Z,76.12
2016-12-12T14:19:17.228Z,75.74
2016-12-12T14:20:27.234Z,75.84
2016-12-12T14:21:37.017Z,75.64
2016-12-12T14:22:46.802Z,76.12
2016-12-12T14:23:55.995Z,76.5
2016-12-12T14:25:05.454Z,76.4
2016-12-12T14:26:14.943Z,76.97
2016-12-12T14:27:24.412Z,76.69
2016-12-12T14:28:33.891Z,76.78
2016-12-12T14:29:43.683Z,76.78
2016-12-12T14:30:53.156Z,76.69
2016-12-12T14:32:02.703Z,76.59
2016-12-12T14:33:12.489Z,76.78
2016-12-12T14:34:21.697Z,76.78
2016-12-12T14:35:31.185Z,77.17
2016-12-12T14:36:41.025Z,76.84
2016-12-12T14:37:50.831Z,77.12
2016-12-12T14:39:00.784Z,77.41
2016-12-12T14:40:10.559Z,77.89
2016-12-12T14:41:20.396Z,77.73
2016-12-12T14:42:30.203Z,77.98
2016-12-12T14:43:40.015Z,78.02
2016-12-12T14:44:49.505Z,77.17
2016-12-12T14:45:58.985Z,77.26
2016-12-12T14:47:08.817Z,77.98
2016-12-12T14:48:17.996Z,77.83
2016-12-12T14:49:27.791Z,77.98
2016-12-12T14:50:37.734Z,77.73
2016-12-12T14:51:47.519Z,77.55
2016-12-12T14:52:57.305Z,77.6
2016-12-12T14:54:07.109Z,77.6
2016-12-12T14:55:16.257Z,77.6
2016-12-12T14:56:26.068Z,77.89
2016-12-12T14:57:35.588Z,78.17
2016-12-12T14:58:45.064Z,77.98
2016-12-12T14:59:54.870Z,78.27
2016-12-12T15:01:04.644Z,78.02